SAOU/LUQ METAR and TAF weather

Enter ICAO airport designator
Station Type Date Time Source
SAOU METAR 2020/01/21 08:40 UTC NOAA

SAOU 210840Z 29003KT 0500 FG VV/// 20/18 Q1013


Station Type Date Time Source
SAOU Decoded METAR 2020/01/21 08:40 UTC NOAA

San Luis Aerodrome, Argentina (SAOU) 33-16S 066-21W 713M
Jan 21, 2020 - 03:40 AM EST / 2020.01.21 0840 UTC
Wind: from the WNW (290 degrees) at 3 MPH (3 KT):0
Visibility: less than 1 mile:0
Sky conditions: obscured
Weather: fog
Temperature: 68 F (20 C)
Dew Point: 64 F (18 C)
Relative Humidity: 88%
Pressure (altimeter): 29.91 in. Hg (1013 hPa)
ob: SAOU 210840Z 29003KT 0500 FG VV/// 20/18 Q1013
cycle: 8

Station Type Date Time Source
SAOU TAF 2019/11/14 19:21 UTC NOAA

TAF TAF
AMD SAOU 141900Z 1419/1518 07010KT 7000 TSRA SCT030 FEW040CB SCT080 TX32/1419Z TN21/1509Z
BECMG 1421/1423 11010KT 9999 VCTS SCT040 FEW050CB PROB40
TEMPO 1502/1506 14010KT 6000 TSRA BKN020 FEW030CB
BECMG 1507/1509 07005KT 9999 NSW SCT030

Example: see airport list